Time;durP1;ratioP1;P1;durP2;ratioP2;P2;SDS_P1;SDS_P2;PMS_P1;PMS_P2;Temp;Humidity;BMP_temperature;BMP_pressure;BME280_temperature;BME280_humidity;BME280_pressure;Samples;Min_cycle;Max_cycle;Signal;HPM_P1;HPM_P2
2023/04/02 00:02:20;;;;;;;1.97;1.80;;;;;;;8.27;nan;-24047.94;4992588;28;20187;-69
2023/04/02 00:05:18;;;;;;;2.10;1.90;;;;;;;8.39;nan;-24051.50;4992261;28;20663;-67
2023/04/02 00:07:52;;;;;;;1.93;1.80;;;;;;;8.20;nan;-24046.09;4992018;28;20581;-69
2023/04/02 00:10:29;;;;;;;2.03;1.80;;;;;;;8.30;nan;-24048.81;4992133;28;20177;-71
2023/04/02 00:13:33;;;;;;;2.17;1.90;;;;;;;8.13;nan;-24044.00;5007698;28;20694;-69
2023/04/02 00:15:59;;;;;;;2.20;2.00;;;;;;;7.96;nan;-24039.31;4998171;28;20832;-68
2023/04/02 00:18:26;;;;;;;2.07;1.87;;;;;;;7.91;nan;-24037.88;4991999;28;20184;-69
2023/04/02 00:21:21;;;;;;;2.37;1.97;;;;;;;7.75;nan;-24033.50;4992178;28;20204;-67
2023/04/02 00:23:47;;;;;;;2.20;1.97;;;;;;;8.09;nan;-24042.84;5007036;28;20169;-69
2023/04/02 00:26:43;;;;;;;2.10;1.90;;;;;;;8.26;nan;-24047.66;4992174;28;20180;-69
2023/04/02 00:29:11;;;;;;;2.00;1.80;;;;;;;8.35;nan;-24050.38;4994764;28;20223;-69
2023/04/02 00:31:40;;;;;;;2.10;1.80;;;;;;;8.56;nan;-24056.03;4991269;28;20200;-69
2023/04/02 00:34:08;;;;;;;2.33;2.13;;;;;;;8.22;nan;-24046.69;4992437;28;20581;-68
2023/04/02 00:36:35;;;;;;;2.17;1.97;;;;;;;8.22;nan;-24046.53;4991873;28;20176;-67
2023/04/02 00:39:06;;;;;;;1.93;1.70;;;;;;;8.48;nan;-24053.75;4991956;28;20169;-69
2023/04/02 00:41:34;;;;;;;2.30;2.10;;;;;;;8.54;nan;-24055.59;4991955;28;20270;-69
2023/04/02 00:44:01;;;;;;;2.00;1.80;;;;;;;8.55;nan;-24055.75;4991679;28;20180;-69
2023/04/02 00:46:45;;;;;;;2.90;2.17;;;;;;;8.57;nan;-24056.31;4992184;28;20250;-69
2023/04/02 00:49:25;;;;;;;2.97;2.33;;;;;;;8.40;nan;-24051.63;4991931;28;20161;-68
2023/04/02 00:51:56;;;;;;;7.97;2.23;;;;;;;8.13;nan;-24044.00;4991883;28;20554;-69
2023/04/02 00:54:25;;;;;;;2.23;2.00;;;;;;;8.31;nan;-24049.22;4991844;28;20267;-67
2023/04/02 00:56:53;;;;;;;2.70;2.37;;;;;;;8.38;nan;-24051.22;4992014;28;20598;-69
2023/04/02 00:59:19;;;;;;;4.40;2.20;;;;;;;8.06;nan;-24042.00;4991795;28;20203;-67
2023/04/02 01:01:53;;;;;;;2.57;2.13;;;;;;;7.81;nan;-24035.22;4991657;28;20196;-69
2023/04/02 01:04:35;;;;;;;14.17;2.13;;;;;;;7.84;nan;-24035.91;4991862;28;20255;-68
2023/04/02 01:07:05;;;;;;;2.87;2.10;;;;;;;7.92;nan;-24038.31;4991693;28;20203;-68
2023/04/02 01:09:49;;;;;;;3.20;2.47;;;;;;;7.95;nan;-24039.03;4991100;28;20616;-69
2023/04/02 01:12:28;;;;;;;3.60;2.53;;;;;;;7.89;nan;-24037.47;4991196;28;20195;-68
2023/04/02 01:15:06;;;;;;;3.27;2.20;;;;;;;8.07;nan;-24042.28;4991822;28;20165;-70
2023/04/02 01:17:47;;;;;;;2.13;1.93;;;;;;;7.90;nan;-24037.75;4992002;28;20624;-69
2023/04/02 01:20:37;;;;;;;2.93;2.10;;;;;;;8.15;nan;-24044.69;4991815;28;20206;-68
2023/04/02 01:23:13;;;;;;;2.17;1.77;;;;;;;8.25;nan;-24047.53;4991760;28;20660;-69
2023/04/02 01:26:14;;;;;;;2.27;2.07;;;;;;;8.28;nan;-24048.22;4991440;28;20173;-67
2023/04/02 01:29:05;;;;;;;2.43;2.10;;;;;;;8.32;nan;-24049.38;4991730;28;20183;-69
2023/04/02 01:31:32;;;;;;;2.40;2.20;;;;;;;8.15;nan;-24044.56;4991373;28;20180;-68
2023/04/02 01:33:59;;;;;;;2.03;1.83;;;;;;;8.20;nan;-24046.09;4991073;28;20686;-69
2023/04/02 01:36:54;;;;;;;3.17;2.33;;;;;;;7.95;nan;-24039.03;4991528;28;20165;-69
2023/04/02 01:39:29;;;;;;;2.77;2.17;;;;;;;8.35;nan;-24050.22;4991631;28;20173;-70
2023/04/02 01:42:17;;;;;;;3.43;2.13;;;;;;;8.49;nan;-24054.19;4992910;28;20181;-68
2023/04/02 01:44:50;;;;;;;2.97;1.83;;;;;;;8.19;nan;-24045.69;4994626;28;20176;-69
2023/04/02 01:47:24;;;;;;;2.40;2.00;;;;;;;8.17;nan;-24045.13;4995142;28;20584;-68
2023/04/02 01:49:55;;;;;;;2.60;2.10;;;;;;;8.39;nan;-24051.50;4994975;28;20712;-68
2023/04/02 01:52:43;;;;;;;2.53;1.97;;;;;;;8.50;nan;-24054.47;4994842;28;20169;-67
2023/04/02 01:55:12;;;;;;;2.83;1.80;;;;;;;8.48;nan;-24053.75;4994366;28;20173;-69
2023/04/02 01:57:42;;;;;;;2.70;2.00;;;;;;;8.49;nan;-24054.19;4994312;28;20658;-68
2023/04/02 02:00:13;;;;;;;2.57;2.03;;;;;;;8.53;nan;-24055.31;4994625;28;20775;-68
2023/04/02 02:02:40;;;;;;;2.67;1.83;;;;;;;8.46;nan;-24053.34;4994759;28;20165;-70
2023/04/02 02:05:13;;;;;;;2.70;1.67;;;;;;;8.56;nan;-24056.03;4994603;28;20196;-70
2023/04/02 02:07:40;;;;;;;2.33;1.70;;;;;;;8.47;nan;-24053.47;4993605;28;20565;-69
2023/04/02 02:10:13;;;;;;;2.80;2.00;;;;;;;8.32;nan;-24049.38;4994379;28;20191;-69
2023/04/02 02:12:40;;;;;;;1.97;1.73;;;;;;;8.20;nan;-24045.97;4994700;28;20177;-69
2023/04/02 02:15:15;;;;;;;2.73;2.03;;;;;;;8.43;nan;-24052.47;4994557;28;20169;-69
2023/04/02 02:17:41;;;;;;;1.77;1.67;;;;;;;8.25;nan;-24047.53;4994964;28;20202;-70
2023/04/02 02:20:11;;;;;;;1.90;1.80;;;;;;;8.52;nan;-24055.03;4994692;28;20295;-68
2023/04/02 02:22:41;;;;;;;1.97;1.80;;;;;;;8.38;nan;-24051.06;4994313;28;20544;-68
2023/04/02 02:25:15;;;;;;;2.60;2.27;;;;;;;8.36;nan;-24050.66;4994176;28;20203;-70
2023/04/02 02:27:49;;;;;;;2.77;2.07;;;;;;;8.29;nan;-24048.50;4992285;28;20567;-69
2023/04/02 02:30:27;;;;;;;2.40;2.00;;;;;;;8.21;nan;-24046.25;4993564;28;20317;-68
2023/04/02 02:33:05;;;;;;;2.73;1.90;;;;;;;8.18;nan;-24045.53;5008734;28;20180;-68
2023/04/02 02:35:43;;;;;;;2.33;2.07;;;;;;;7.76;nan;-24033.78;4993687;28;20690;-68
2023/04/02 02:38:27;;;;;;;2.67;2.00;;;;;;;8.06;nan;-24042.00;4994111;28;20175;-68
2023/04/02 02:40:56;;;;;;;1.97;1.77;;;;;;;8.15;nan;-24044.56;4993673;28;20212;-70
2023/04/02 02:43:23;;;;;;;2.63;1.93;;;;;;;8.05;nan;-24041.84;4993826;28;20177;-67
2023/04/02 02:45:51;;;;;;;2.30;1.83;;;;;;;7.82;nan;-24035.47;4992308;28;20183;-70
2023/04/02 02:48:20;;;;;;;2.10;1.90;;;;;;;8.09;nan;-24043.00;4993547;28;20259;-69
2023/04/02 02:50:46;;;;;;;1.67;1.57;;;;;;;7.88;nan;-24037.03;4993508;28;20185;-68
2023/04/02 02:53:18;;;;;;;2.53;1.93;;;;;;;7.96;nan;-24039.44;4992661;28;20227;-69
2023/04/02 02:55:44;;;;;;;2.10;1.90;;;;;;;8.15;nan;-24044.56;4993231;28;20248;-69
2023/04/02 02:58:27;;;;;;;5.37;1.80;;;;;;;8.19;nan;-24045.81;4993818;28;20181;-69
2023/04/02 03:00:53;;;;;;;2.50;2.20;;;;;;;7.56;nan;-24028.13;4993798;28;20612;-69
2023/04/02 03:03:23;;;;;;;2.10;1.90;;;;;;;8.12;nan;-24043.69;4993268;28;20173;-68
2023/04/02 03:05:55;;;;;;;3.30;2.00;;;;;;;7.78;nan;-24034.22;4993470;28;20176;-68
2023/04/02 03:08:32;;;;;;;2.20;2.00;;;;;;;7.84;nan;-24036.06;4993941;28;20187;-69
2023/04/02 03:11:09;;;;;;;2.33;2.03;;;;;;;8.15;nan;-24044.56;4992072;28;20656;-69
2023/04/02 03:13:37;;;;;;;2.50;1.83;;;;;;;7.88;nan;-24037.03;4993822;28;20629;-70
2023/04/02 03:16:16;;;;;;;2.20;1.87;;;;;;;8.02;nan;-24040.88;4993153;28;20160;-68
2023/04/02 03:18:53;;;;;;;2.30;2.10;;;;;;;8.20;nan;-24045.97;4993792;28;20172;-67
2023/04/02 03:21:25;;;;;;;2.53;2.33;;;;;;;8.15;nan;-24044.56;4993038;28;20300;-69
2023/04/02 03:23:58;;;;;;;2.57;1.97;;;;;;;7.95;nan;-24039.03;4993420;28;20687;-69
2023/04/02 03:26:44;;;;;;;2.63;2.30;;;;;;;7.95;nan;-24039.16;4992864;28;20242;-69
2023/04/02 03:29:18;;;;;;;2.27;2.00;;;;;;;7.74;nan;-24033.22;4993540;28;20260;-67
2023/04/02 03:31:56;;;;;;;3.17;2.13;;;;;;;7.77;nan;-24034.06;4993304;28;20165;-69
2023/04/02 03:34:28;;;;;;;2.90;2.47;;;;;;;7.91;nan;-24038.03;4992928;28;20231;-68
2023/04/02 03:37:00;;;;;;;2.00;1.80;;;;;;;8.03;nan;-24041.16;4991583;28;20169;-66
2023/04/02 03:39:59;;;;;;;3.03;2.30;;;;;;;7.99;nan;-24040.16;4993450;28;20656;-69
2023/04/02 03:42:29;;;;;;;2.40;1.90;;;;;;;8.00;nan;-24040.59;4995840;28;20192;-67
2023/04/02 03:45:17;;;;;;;2.10;1.90;;;;;;;7.96;nan;-24039.31;4992775;28;20179;-69
2023/04/02 03:47:51;;;;;;;2.67;1.97;;;;;;;7.55;nan;-24027.84;4993081;28;20200;-68
2023/04/02 03:50:20;;;;;;;2.43;2.23;;;;;;;7.92;nan;-24038.19;4993050;28;20165;-69
2023/04/02 03:52:47;;;;;;;12.30;2.20;;;;;;;7.63;nan;-24030.09;4993096;28;20173;-69
2023/04/02 03:55:20;;;;;;;2.50;2.00;;;;;;;7.66;nan;-24030.94;4992385;28;20409;-70
2023/04/02 03:58:10;;;;;;;2.40;1.90;;;;;;;7.67;nan;-24031.25;5007566;28;20173;-72
2023/04/02 04:01:07;;;;;;;3.97;2.30;;;;;;;7.89;nan;-24037.47;4991344;28;20235;-69
2023/04/02 04:03:35;;;;;;;3.30;2.17;;;;;;;7.99;nan;-24040.31;4994221;28;20216;-67
2023/04/02 04:06:09;;;;;;;3.33;3.03;;;;;;;7.84;nan;-24036.06;4338460;28;20998;-70
2023/04/02 04:08:41;;;;;;;2.33;2.13;;;;;;;8.13;nan;-24044.13;4263592;28;21198;-69
2023/04/02 04:11:17;;;;;;;3.73;2.90;;;;;;;7.82;nan;-24035.47;4269312;28;20841;-70
2023/04/02 04:13:52;;;;;;;3.37;2.50;;;;;;;7.87;nan;-24036.91;4986840;28;20180;-70
2023/04/02 04:16:28;;;;;;;3.07;2.63;;;;;;;7.63;nan;-24029.97;4992284;28;20260;-69
2023/04/02 04:19:03;;;;;;;2.73;1.97;;;;;;;7.79;nan;-24034.50;4992335;28;20165;-69
2023/04/02 04:21:29;;;;;;;2.90;2.03;;;;;;;7.95;nan;-24039.16;4992677;28;20687;-68
2023/04/02 04:24:02;;;;;;;3.27;2.47;;;;;;;7.53;nan;-24027.28;4991732;28;20355;-68
2023/04/02 04:26:57;;;;;;;2.60;2.30;;;;;;;7.84;nan;-24035.91;4992340;28;20183;-69
2023/04/02 04:29:47;;;;;;;4.57;2.13;;;;;;;8.12;nan;-24043.69;4992041;28;20796;-70
2023/04/02 04:32:48;;;;;;;2.70;2.17;;;;;;;8.09;nan;-24042.84;4991922;28;20215;-69
2023/04/02 04:35:24;;;;;;;3.60;2.37;;;;;;;7.99;nan;-24040.31;4991820;28;20175;-68
2023/04/02 04:37:58;;;;;;;2.30;2.03;;;;;;;8.19;nan;-24045.81;4992238;28;20180;-71
2023/04/02 04:40:29;;;;;;;2.07;1.87;;;;;;;8.16;nan;-24044.84;4991226;28;20621;-68
2023/04/02 04:42:59;;;;;;;2.17;1.97;;;;;;;8.20;nan;-24045.97;4992113;28;20164;-68
2023/04/02 04:45:34;;;;;;;2.37;2.10;;;;;;;8.25;nan;-24047.38;4990638;28;20223;-70
2023/04/02 04:48:01;;;;;;;2.10;1.80;;;;;;;8.12;nan;-24043.69;4992168;28;20179;-67
2023/04/02 04:50:37;;;;;;;2.00;1.80;;;;;;;8.22;nan;-24046.69;4991705;28;20647;-68
2023/04/02 04:53:24;;;;;;;2.13;1.83;;;;;;;8.45;nan;-24052.91;5006780;28;20188;-69
2023/04/02 04:55:55;;;;;;;3.13;2.20;;;;;;;8.62;nan;-24057.88;4991728;28;20231;-69
2023/04/02 04:58:34;;;;;;;4.50;2.20;;;;;;;8.49;nan;-24054.03;4990888;28;20192;-69
2023/04/02 05:01:04;;;;;;;2.50;2.30;;;;;;;8.54;nan;-24055.59;5006984;28;20246;-70
2023/04/02 05:03:30;;;;;;;2.63;2.23;;;;;;;8.85;nan;-24064.38;4991771;28;20181;-69
2023/04/02 05:06:07;;;;;;;3.33;2.33;;;;;;;8.80;nan;-24062.94;4986610;28;20189;-69
2023/04/02 05:08:37;;;;;;;5.40;2.57;;;;;;;8.85;nan;-24064.38;4983692;28;20180;-68
2023/04/02 05:11:10;;;;;;;3.10;2.53;;;;;;;9.10;nan;-24071.16;4990517;28;20188;-69
2023/04/02 05:13:39;;;;;;;3.60;2.47;;;;;;;9.14;nan;-24072.44;4991974;28;20173;-69
2023/04/02 05:16:26;;;;;;;2.67;2.13;;;;;;;9.18;nan;-24073.41;4988258;28;20638;-69
2023/04/02 05:19:06;;;;;;;3.73;2.40;;;;;;;9.31;nan;-24077.25;4994396;28;20546;-69
2023/04/02 05:21:59;;;;;;;3.23;2.00;;;;;;;9.39;nan;-24079.22;4995303;28;20400;-70
2023/04/02 05:24:50;;;;;;;2.73;2.03;;;;;;;9.56;nan;-24084.16;4995863;28;20200;-69
2023/04/02 05:27:53;;;;;;;2.77;2.13;;;;;;;9.62;nan;-24085.72;4975499;28;20633;-69
2023/04/02 05:30:27;;;;;;;3.07;2.00;;;;;;;9.76;nan;-24089.81;4976179;28;20684;-68
2023/04/02 05:32:57;;;;;;;2.87;2.00;;;;;;;10.02;nan;-24096.88;4976033;28;20165;-69
2023/04/02 05:35:30;;;;;;;3.17;1.80;;;;;;;10.29;nan;-24104.50;4975892;28;20543;-69
2023/04/02 05:37:56;;;;;;;2.05;1.77;;;;;;;10.35;nan;-24106.06;5007217;28;20548;-73
2023/04/02 05:40:30;;;;;;;2.65;2.05;;;;;;;10.63;nan;-24114.09;4975517;28;20204;-69
2023/04/02 05:42:57;;;;;;;4.28;2.08;;;;;;;10.67;nan;-24115.09;4975922;28;20247;-68
2023/04/02 05:45:30;;;;;;;2.72;2.20;;;;;;;11.16;nan;-24128.75;4981958;28;20184;-69
2023/04/02 05:48:00;;;;;;;4.43;2.13;;;;;;;10.93;nan;-24122.41;4994474;28;20169;-72
2023/04/02 05:50:35;;;;;;;10.38;2.33;;;;;;;11.54;nan;-24139.34;4994915;28;20168;-67
2023/04/02 05:53:13;;;;;;;2.08;1.88;;;;;;;11.83;nan;-24147.38;4993551;28;20550;-74
2023/04/02 05:56:04;;;;;;;4.22;1.80;;;;;;;11.82;nan;-24147.09;4994583;28;20251;-75
2023/04/02 05:58:42;;;;;;;2.15;1.95;;;;;;;12.14;nan;-24155.97;4994341;28;20252;-70
2023/04/02 06:01:16;;;;;;;2.58;1.98;;;;;;;12.05;nan;-24153.41;4994161;28;20196;-73
2023/04/02 06:03:54;;;;;;;2.53;2.10;;;;;;;12.39;nan;-24163.13;4993915;28;20169;-74
2023/04/02 06:06:22;;;;;;;3.33;1.80;;;;;;;12.43;nan;-24164.13;4994848;28;20160;-72
2023/04/02 06:09:08;;;;;;;2.22;1.90;;;;;;;12.66;nan;-24170.44;4993909;28;20630;-73
2023/04/02 06:11:44;;;;;;;2.28;1.90;;;;;;;13.07;nan;-24181.97;4991973;28;20181;-70
2023/04/02 06:14:12;;;;;;;2.08;1.60;;;;;;;12.68;nan;-24171.16;4980999;28;20222;-72
2023/04/02 06:16:39;;;;;;;2.58;1.80;;;;;;;13.38;nan;-24190.41;4985751;28;20196;-71
2023/04/02 06:19:13;;;;;;;3.15;1.75;;;;;;;13.31;nan;-24188.59;4980287;28;20600;-69
2023/04/02 06:21:46;;;;;;;1.92;1.60;;;;;;;13.51;nan;-24194.19;4986566;28;20207;-76
2023/04/02 06:24:16;;;;;;;1.23;1.13;;;;;;;13.43;nan;-24191.81;4999882;28;20185;-70
2023/04/02 06:26:47;;;;;;;1.40;1.30;;;;;;;13.63;nan;-24197.56;4994865;28;20512;-71
2023/04/02 06:29:27;;;;;;;2.15;1.67;;;;;;;13.66;nan;-24198.41;4987488;28;20181;-69
2023/04/02 06:32:01;;;;;;;2.15;1.60;;;;;;;13.46;nan;-24192.78;4986668;28;20195;-72
2023/04/02 06:34:29;;;;;;;1.65;1.52;;;;;;;13.74;nan;-24200.53;4992901;28;20286;-74
2023/04/02 06:37:02;;;;;;;2.10;1.45;;;;;;;13.55;nan;-24195.19;4993801;28;20184;-72
2023/04/02 06:39:28;;;;;;;1.77;1.40;;;;;;;13.73;nan;-24200.09;5009207;28;20580;-74
2023/04/02 06:42:16;;;;;;;1.98;1.60;;;;;;;13.85;nan;-24203.59;4993811;28;20237;-70
2023/04/02 06:44:42;;;;;;;2.22;1.55;;;;;;;13.68;nan;-24198.84;4987665;28;20648;-70
2023/04/02 06:47:34;;;;;;;4.03;1.45;;;;;;;13.80;nan;-24202.19;4993734;28;20248;-70
2023/04/02 06:50:15;;;;;;;2.10;1.27;;;;;;;13.76;nan;-24201.09;4974802;28;20174;-71
2023/04/02 06:52:46;;;;;;;1.60;1.40;;;;;;;13.89;nan;-24204.59;5008109;28;20180;-73
2023/04/02 06:55:20;;;;;;;1.67;1.58;;;;;;;14.13;nan;-24211.47;4993366;28;20177;-74
2023/04/02 06:57:47;;;;;;;1.40;1.30;;;;;;;14.03;nan;-24208.53;4993512;28;20180;-73
2023/04/02 07:00:24;;;;;;;1.70;1.60;;;;;;;13.86;nan;-24203.88;4993457;28;20212;-69
2023/04/02 07:02:50;;;;;;;2.42;1.60;;;;;;;14.12;nan;-24211.03;4993312;28;20326;-70
2023/04/02 07:05:16;;;;;;;3.75;1.80;;;;;;;14.06;nan;-24209.50;4987296;28;20213;-70
2023/04/02 07:07:41;;;;;;;2.00;1.70;;;;;;;14.18;nan;-24212.59;4993607;28;20217;-69
2023/04/02 07:10:08;;;;;;;3.28;2.20;;;;;;;14.29;nan;-24215.81;4994058;28;20220;-72
2023/04/02 07:12:33;;;;;;;3.90;2.28;;;;;;;14.28;nan;-24215.41;4993473;28;20176;-70
2023/04/02 07:14:59;;;;;;;3.15;2.30;;;;;;;14.19;nan;-24212.88;4993019;28;20628;-74
2023/04/02 07:17:24;;;;;;;4.93;2.40;;;;;;;14.07;nan;-24209.63;4998836;28;20292;-70
2023/04/02 07:19:50;;;;;;;1.80;1.52;;;;;;;14.43;nan;-24219.59;4991646;28;20560;-74
2023/04/02 07:22:17;;;;;;;1.80;1.70;;;;;;;14.30;nan;-24215.94;4988271;28;20572;-70
2023/04/02 07:24:43;;;;;;;1.83;1.50;;;;;;;13.99;nan;-24207.53;4999432;28;20602;-71
2023/04/02 07:27:10;;;;;;;1.90;1.30;;;;;;;14.13;nan;-24211.31;4987020;28;20182;-70
2023/04/02 07:29:41;;;;;;;2.13;1.60;;;;;;;14.22;nan;-24213.84;4985022;28;20216;-74
2023/04/02 07:32:07;;;;;;;1.63;1.52;;;;;;;14.30;nan;-24216.09;4988824;28;20183;-73
2023/04/02 07:34:32;;;;;;;2.47;1.65;;;;;;;14.02;nan;-24208.25;4983570;28;20629;-74
2023/04/02 07:36:58;;;;;;;1.65;1.52;;;;;;;14.60;nan;-24224.38;4988633;28;20169;-75
2023/04/02 07:39:23;;;;;;;2.47;1.95;;;;;;;14.47;nan;-24220.88;4999299;28;20198;-73
2023/04/02 07:42:00;;;;;;;2.47;1.83;;;;;;;14.18;nan;-24212.72;4980515;28;20263;-74
2023/04/02 07:44:26;;;;;;;1.60;1.30;;;;;;;14.54;nan;-24222.69;4995536;28;20188;-71
2023/04/02 07:46:51;;;;;;;3.50;1.52;;;;;;;14.35;nan;-24217.34;4986973;28;20188;-72
2023/04/02 07:49:17;;;;;;;1.85;1.65;;;;;;;14.69;nan;-24226.75;4992345;28;20177;-73
2023/04/02 07:51:42;;;;;;;1.58;1.48;;;;;;;14.72;nan;-24227.75;4979670;28;20181;-72
2023/04/02 07:54:09;;;;;;;1.50;1.40;;;;;;;14.65;nan;-24225.63;4984448;28;20555;-70
2023/04/02 07:56:35;;;;;;;1.88;1.60;;;;;;;14.71;nan;-24227.47;4982583;28;20224;-74
2023/04/02 07:59:01;;;;;;;2.13;1.73;;;;;;;14.83;nan;-24230.69;4993989;28;20184;-70
2023/04/02 08:01:28;;;;;;;2.17;1.70;;;;;;;14.67;nan;-24226.19;4977308;28;20205;-73
2023/04/02 08:03:55;;;;;;;2.85;1.55;;;;;;;14.78;nan;-24229.41;4991367;28;20278;-73
2023/04/02 08:06:21;;;;;;;2.28;1.55;;;;;;;14.78;nan;-24229.41;4987314;28;20748;-70
2023/04/02 08:08:47;;;;;;;1.40;1.30;;;;;;;14.66;nan;-24226.06;4978842;28;20652;-71
2023/04/02 08:11:12;;;;;;;1.40;1.30;;;;;;;14.79;nan;-24229.69;4985955;28;20180;-73
2023/04/02 08:13:38;;;;;;;1.88;1.65;;;;;;;14.70;nan;-24227.19;4990303;28;20181;-72
2023/04/02 08:16:04;;;;;;;2.33;1.75;;;;;;;14.67;nan;-24226.34;4984145;28;20671;-73
2023/04/02 08:18:30;;;;;;;3.00;1.58;;;;;;;14.47;nan;-24220.88;4978761;28;20181;-72
2023/04/02 08:20:57;;;;;;;1.90;1.38;;;;;;;14.84;nan;-24231.09;4983192;28;20197;-71
2023/04/02 08:23:23;;;;;;;1.40;1.30;;;;;;;14.58;nan;-24223.81;4982978;28;20648;-72
2023/04/02 08:25:49;;;;;;;1.38;1.27;;;;;;;14.95;nan;-24234.19;4984209;28;20191;-74
2023/04/02 08:28:15;;;;;;;1.58;1.40;;;;;;;15.07;nan;-24237.28;4985605;28;20678;-74
2023/04/02 08:30:41;;;;;;;1.40;1.30;;;;;;;14.85;nan;-24231.38;4990061;28;20189;-72
2023/04/02 08:33:06;;;;;;;1.40;1.25;;;;;;;15.07;nan;-24237.28;4983113;28;20199;-71
2023/04/02 08:35:32;;;;;;;1.95;1.20;;;;;;;15.63;nan;-24252.81;4979219;28;20192;-72
2023/04/02 08:37:58;;;;;;;1.30;1.20;;;;;;;15.90;nan;-24260.50;4989113;28;20228;-72
2023/04/02 08:40:48;;;;;;;1.30;1.08;;;;;;;16.23;nan;-24269.59;4987329;28;20726;-72
2023/04/02 08:43:16;;;;;;;2.35;1.33;;;;;;;16.03;nan;-24264.00;4987520;28;20196;-69
2023/04/02 08:45:50;;;;;;;1.42;1.20;;;;;;;16.25;nan;-24270.03;4985586;28;20612;-72
2023/04/02 08:48:16;;;;;;;1.50;1.13;;;;;;;16.29;nan;-24271.28;4989768;28;20638;-72
2023/04/02 08:50:43;;;;;;;1.30;1.20;;;;;;;16.17;nan;-24267.78;4986404;28;20185;-71
2023/04/02 08:53:12;;;;;;;1.50;1.27;;;;;;;16.58;nan;-24279.25;4991461;28;20238;-73
2023/04/02 08:56:07;;;;;;;1.20;1.10;;;;;;;16.56;nan;-24278.69;4987437;28;20220;-73
2023/04/02 08:58:43;;;;;;;8.52;1.90;;;;;;;16.85;nan;-24286.50;4990506;28;20188;-71
2023/04/02 09:01:38;;;;;;;1.05;0.95;;;;;;;16.73;nan;-24283.31;4990250;28;20266;-70
2023/04/02 09:04:12;;;;;;;1.20;1.10;;;;;;;16.72;nan;-24283.16;4987298;28;20651;-73
2023/04/02 09:06:37;;;;;;;1.60;1.13;;;;;;;16.75;nan;-24284.00;4989441;28;20199;-72
2023/04/02 09:09:03;;;;;;;1.52;1.10;;;;;;;16.71;nan;-24282.88;4984446;28;20574;-74
2023/04/02 09:11:51;;;;;;;1.75;1.08;;;;;;;16.70;nan;-24282.47;4990740;28;20266;-70
2023/04/02 09:14:20;;;;;;;1.65;1.13;;;;;;;16.64;nan;-24280.94;4997540;28;20184;-73
2023/04/02 09:16:48;;;;;;;1.30;1.20;;;;;;;16.89;nan;-24287.63;4991550;28;20647;-75
2023/04/02 09:19:22;;;;;;;1.30;1.20;;;;;;;17.07;nan;-24292.81;4984750;28;20195;-72
2023/04/02 09:21:55;;;;;;;1.25;1.13;;;;;;;17.15;nan;-24294.91;4982368;28;20243;-74
2023/04/02 09:24:21;;;;;;;1.20;1.10;;;;;;;17.28;nan;-24298.38;4984113;28;20210;-70
2023/04/02 09:26:46;;;;;;;2.05;1.10;;;;;;;17.44;nan;-24303.00;4981187;28;20708;-74
2023/04/02 09:29:12;;;;;;;1.98;1.40;;;;;;;17.62;nan;-24307.88;4989180;28;20515;-72
2023/04/02 09:31:45;;;;;;;1.65;1.30;;;;;;;17.36;nan;-24300.75;4989158;28;20522;-71
2023/04/02 09:34:33;;;;;;;1.48;1.20;;;;;;;17.40;nan;-24301.88;4987492;28;20196;-69
2023/04/02 09:37:08;;;;;;;1.20;1.10;;;;;;;17.78;nan;-24312.19;4986848;28;20192;-73
2023/04/02 09:39:34;;;;;;;2.95;1.30;;;;;;;18.17;nan;-24323.06;4981249;28;20275;-72
2023/04/02 09:42:26;;;;;;;1.45;1.27;;;;;;;18.02;nan;-24318.91;4994700;28;20239;-73
2023/04/02 09:44:52;;;;;;;1.63;1.20;;;;;;;18.09;nan;-24320.84;4994746;28;20177;-72
2023/04/02 09:47:27;;;;;;;1.88;1.30;;;;;;;18.50;nan;-24332.28;4994203;28;20184;-73
2023/04/02 09:49:52;;;;;;;1.10;1.00;;;;;;;18.72;nan;-24338.25;4994003;28;20267;-73
2023/04/02 09:52:28;;;;;;;3.00;1.70;;;;;;;18.73;nan;-24338.41;4994699;28;20252;-73
2023/04/02 09:55:27;;;;;;;0.90;0.90;;;;;;;18.25;nan;-24325.31;4994561;28;20251;-71
2023/04/02 09:58:13;;;;;;;0.95;0.93;;;;;;;18.06;nan;-24320.00;4993476;28;20432;-72
2023/04/02 10:00:48;;;;;;;0.95;0.95;;;;;;;18.35;nan;-24328.09;4996773;28;20200;-73
2023/04/02 10:03:27;;;;;;;1.05;0.98;;;;;;;18.44;nan;-24330.59;4993930;28;20271;-73
2023/04/02 10:06:13;;;;;;;0.70;0.70;;;;;;;18.19;nan;-24323.63;4992630;28;20184;-74
2023/04/02 10:08:41;;;;;;;0.70;0.70;;;;;;;18.26;nan;-24325.44;4992837;28;20652;-77
2023/04/02 10:11:12;;;;;;;0.80;0.80;;;;;;;18.43;nan;-24330.31;4987763;28;20200;-75
2023/04/02 10:13:55;;;;;;;0.88;0.88;;;;;;;18.27;nan;-24325.72;4994414;28;20310;-70
2023/04/02 10:16:31;;;;;;;2.72;0.88;;;;;;;18.61;nan;-24335.06;4994489;28;20267;-72
2023/04/02 10:19:08;;;;;;;0.85;0.85;;;;;;;18.54;nan;-24333.38;4994233;28;20193;-73
2023/04/02 10:21:38;;;;;;;0.90;0.90;;;;;;;18.72;nan;-24338.25;4993683;28;20286;-73
2023/04/02 10:24:11;;;;;;;0.80;0.80;;;;;;;19.10;nan;-24348.69;4994062;28;20560;-73
2023/04/02 10:26:55;;;;;;;0.77;0.77;;;;;;;18.68;nan;-24337.16;4994268;28;20627;-73
2023/04/02 10:30:01;;;;;;;0.77;0.77;;;;;;;19.32;nan;-24354.69;4993487;28;20175;-71
2023/04/02 10:32:38;;;;;;;0.77;0.77;;;;;;;19.02;nan;-24346.34;4994328;28;20171;-70
2023/04/02 10:35:07;;;;;;;0.88;0.88;;;;;;;19.41;nan;-24357.19;4993673;28;20559;-70
2023/04/02 10:37:45;;;;;;;1.42;0.90;;;;;;;19.61;nan;-24362.75;4993725;28;20695;-58
2023/04/02 10:40:32;;;;;;;0.80;0.80;;;;;;;19.82;nan;-24368.47;4993220;28;20342;-56
2023/04/02 10:43:35;;;;;;;1.00;0.90;;;;;;;20.05;nan;-24374.72;4993449;28;20654;-59
2023/04/02 10:46:25;;;;;;;1.77;0.70;;;;;;;19.88;nan;-24370.13;4986739;28;20181;-58
2023/04/02 10:49:14;;;;;;;0.82;0.82;;;;;;;19.68;nan;-24364.69;4993993;28;20192;-58
2023/04/02 10:51:59;;;;;;;0.80;0.80;;;;;;;19.79;nan;-24367.75;4974169;28;20173;-58
2023/04/02 10:54:50;;;;;;;0.82;0.82;;;;;;;19.91;nan;-24370.81;4981688;28;20185;-59
2023/04/02 10:57:25;;;;;;;0.98;0.90;;;;;;;19.88;nan;-24370.13;4992925;28;20232;-58
2023/04/02 11:00:07;;;;;;;0.88;0.88;;;;;;;19.83;nan;-24368.72;4993460;28;20168;-58
2023/04/02 11:03:01;;;;;;;1.52;0.80;;;;;;;20.08;nan;-24375.69;4993183;28;20161;-57
2023/04/02 11:05:48;;;;;;;0.90;0.85;;;;;;;19.79;nan;-24367.75;4992991;28;20552;-57
2023/04/02 11:08:38;;;;;;;0.80;0.80;;;;;;;19.66;nan;-24364.16;4993374;28;20628;-59
2023/04/02 11:11:22;;;;;;;1.55;0.90;;;;;;;19.44;nan;-24357.88;4994728;28;20169;-59
2023/04/02 11:13:56;;;;;;;0.88;0.80;;;;;;;19.99;nan;-24373.19;4992532;28;20217;-58
2023/04/02 11:16:22;;;;;;;0.93;0.90;;;;;;;19.90;nan;-24370.53;4992909;28;20180;-60
2023/04/02 11:19:13;;;;;;;2.13;0.93;;;;;;;20.29;nan;-24381.38;4992578;28;20663;-55
2023/04/02 11:21:47;;;;;;;0.75;0.75;;;;;;;19.90;nan;-24370.53;4994480;28;20273;-57
2023/04/02 11:24:30;;;;;;;1.25;1.10;;;;;;;20.07;nan;-24375.41;4992793;28;20164;-57
2023/04/02 11:27:11;;;;;;;0.90;0.90;;;;;;;20.00;nan;-24373.31;4992299;28;20165;-57
2023/04/02 11:29:46;;;;;;;1.65;1.10;;;;;;;20.43;nan;-24385.28;4991031;28;20184;-58
2023/04/02 11:32:23;;;;;;;1.20;1.10;;;;;;;20.47;nan;-24386.38;4992395;28;20298;-58
2023/04/02 11:34:49;;;;;;;1.10;1.00;;;;;;;20.65;nan;-24391.22;4992814;28;20176;-59
2023/04/02 11:37:36;;;;;;;1.00;0.90;;;;;;;20.81;nan;-24395.66;4992476;28;20205;-58
2023/04/02 11:40:10;;;;;;;1.10;1.00;;;;;;;19.92;nan;-24371.22;4991995;28;20239;-54
2023/04/02 11:42:54;;;;;;;0.85;0.80;;;;;;;20.01;nan;-24373.72;4992520;28;20516;-59
2023/04/02 11:45:22;;;;;;;1.10;0.90;;;;;;;19.92;nan;-24371.22;4992068;28;20617;-58
2023/04/02 11:47:59;;;;;;;0.93;0.93;;;;;;;20.25;nan;-24380.41;4992446;28;20227;-56
2023/04/02 11:50:29;;;;;;;1.20;1.10;;;;;;;20.01;nan;-24373.59;4991124;28;20242;-58
2023/04/02 11:53:00;;;;;;;1.38;1.10;;;;;;;20.08;nan;-24375.53;4985634;28;20262;-59
2023/04/02 11:55:33;;;;;;;0.98;0.90;;;;;;;19.29;nan;-24354.00;4991644;28;20275;-58
2023/04/02 11:58:27;;;;;;;1.15;1.00;;;;;;;19.68;nan;-24364.69;4991942;28;20627;-57
2023/04/02 12:01:08;;;;;;;0.90;0.90;;;;;;;19.72;nan;-24365.69;4991565;28;20692;-59
2023/04/02 12:03:53;;;;;;;1.10;0.90;;;;;;;19.85;nan;-24369.44;4988641;28;20200;-57
2023/04/02 12:06:38;;;;;;;0.90;0.90;;;;;;;20.09;nan;-24375.97;4991265;28;20180;-58
2023/04/02 12:09:22;;;;;;;3.83;0.98;;;;;;;20.21;nan;-24379.28;4992348;28;20200;-58
2023/04/02 12:11:49;;;;;;;1.27;1.17;;;;;;;20.00;nan;-24373.31;4991790;28;20541;-56
2023/04/02 12:14:36;;;;;;;1.02;0.93;;;;;;;20.17;nan;-24378.19;4992083;28;20656;-58
2023/04/02 12:17:11;;;;;;;1.10;1.00;;;;;;;20.13;nan;-24376.94;4991963;28;20201;-59
2023/04/02 12:19:38;;;;;;;0.95;0.90;;;;;;;19.74;nan;-24366.22;4991716;28;20685;-57
2023/04/02 12:22:03;;;;;;;1.63;1.02;;;;;;;20.15;nan;-24377.63;4992013;28;20197;-59
2023/04/02 12:24:32;;;;;;;1.33;1.02;;;;;;;20.21;nan;-24379.16;4991804;28;20181;-58